Time;durP1;ratioP1;P1;durP2;ratioP2;P2;SDS_P1;SDS_P2;PMS_P1;PMS_P2;Temp;Humidity;BMP_temperature;BMP_pressure;BME280_temperature;BME280_humidity;BME280_pressure;Samples;Min_cycle;Max_cycle;Signal;HPM_P1;HPM_P2
2021/04/06 00:02:20;;;;;;;27.37;20.20;;;;;;;0.31;100.00;100382.25;1796198;79;21151;-89
2021/04/06 00:04:52;;;;;;;24.80;18.98;;;;;;;0.35;100.00;100382.97;1796562;79;28211;-88
2021/04/06 00:07:24;;;;;;;27.37;22.13;;;;;;;0.33;100.00;100377.88;1792607;79;21178;-88
2021/04/06 00:09:59;;;;;;;33.55;26.23;;;;;;;0.32;100.00;100385.20;1763625;79;21551;-88
2021/04/06 00:12:28;;;;;;;34.75;27.32;;;;;;;0.31;100.00;100386.91;1791276;79;21498;-89
2021/04/06 00:14:59;;;;;;;38.27;29.30;;;;;;;0.33;100.00;100377.06;1760422;79;21151;-89
2021/04/06 00:17:30;;;;;;;;;;;;;;;0.36;100.00;100380.80;1735905;81;21082;-89
2021/04/06 00:20:00;;;;;;;32.05;24.75;;;;;;;0.37;100.00;100378.61;1764777;81;20543;-89
2021/04/06 00:22:30;;;;;;;25.92;22.00;;;;;;;0.40;100.00;100379.78;1764816;81;21087;-89
2021/04/06 00:25:01;;;;;;;25.13;20.00;;;;;;;0.45;100.00;100381.30;1765030;80;21213;-89
2021/04/06 00:27:37;;;;;;;26.15;20.35;;;;;;;0.52;100.00;100372.92;1764669;81;21102;-89
2021/04/06 00:30:10;;;;;;;21.23;17.32;;;;;;;0.56;100.00;100371.10;1764746;81;21044;-88
2021/04/06 00:32:40;;;;;;;20.02;16.15;;;;;;;0.59;100.00;100370.55;1764813;81;21475;-89
2021/04/06 00:35:11;;;;;;;17.17;13.28;;;;;;;0.63;100.00;100368.23;1768853;79;21158;-89
2021/04/06 00:37:46;;;;;;;16.95;13.68;;;;;;;0.65;100.00;100367.35;1796332;79;21717;-88
2021/04/06 00:40:16;;;;;;;18.12;13.85;;;;;;;0.63;100.00;100365.67;1767049;79;21555;-88
2021/04/06 00:42:46;;;;;;;16.55;13.53;;;;;;;0.62;100.00;100362.72;1764799;81;21147;-89
2021/04/06 00:45:21;;;;;;;14.70;12.68;;;;;;;0.62;100.00;100365.74;1768606;78;21182;-89
2021/04/06 00:48:11;;;;;;;15.65;12.80;;;;;;;0.60;100.00;100364.50;1776503;80;21202;-89
2021/04/06 00:50:41;;;;;;;16.07;13.68;;;;;;;0.65;100.00;100364.33;1779822;80;21623;-90
2021/04/06 00:53:10;;;;;;;;;;;;;;;0.73;100.00;100362.77;1755377;80;21607;-89
2021/04/06 00:55:41;;;;;;;15.08;12.40;;;;;;;0.81;100.00;100353.48;1783106;80;20230;-90
2021/04/06 00:58:13;;;;;;;16.42;13.20;;;;;;;0.87;100.00;100357.94;1783145;79;21183;-90
2021/04/06 01:00:43;;;;;;;15.95;12.20;;;;;;;0.90;100.00;100360.83;1787909;79;21139;-90
2021/04/06 01:03:14;;;;;;;17.57;13.58;;;;;;;0.94;100.00;100367.52;1792560;80;21366;-90
2021/04/06 01:06:05;;;;;;;17.62;14.53;;;;;;;0.96;100.00;100369.58;1787976;80;21162;-90
2021/04/06 01:08:37;;;;;;;15.88;13.90;;;;;;;0.98;100.00;100364.39;1792581;80;21199;-90
2021/04/06 01:11:06;;;;;;;16.40;14.43;;;;;;;1.00;100.00;100364.70;1788742;80;21139;-89
2021/04/06 01:13:37;;;;;;;17.52;13.65;;;;;;;1.03;100.00;100361.18;1792488;80;21068;-90
2021/04/06 01:16:06;;;;;;;16.90;13.58;;;;;;;1.05;100.00;100362.78;1792402;80;21575;-89
2021/04/06 01:18:34;;;;;;;16.73;14.00;;;;;;;1.08;100.00;100368.27;1792540;79;21119;-89
2021/04/06 01:21:10;;;;;;;16.65;13.80;;;;;;;1.09;100.00;100362.22;1796058;79;21546;-89
2021/04/06 01:23:39;;;;;;;17.70;14.87;;;;;;;1.11;100.00;100363.00;1796130;79;21154;-90
2021/04/06 01:26:12;;;;;;;16.85;14.43;;;;;;;1.09;100.00;100355.37;1796107;79;21127;-89
2021/04/06 01:28:41;;;;;;;15.80;13.72;;;;;;;1.07;100.00;100355.87;1796091;79;21372;-89
2021/04/06 01:31:11;;;;;;;19.75;15.58;;;;;;;1.07;100.00;100357.16;1796046;79;21564;-89
2021/04/06 01:33:42;;;;;;;18.73;15.57;;;;;;;1.08;100.00;100354.16;1796328;79;21194;-89
2021/04/06 01:36:11;;;;;;;16.50;14.20;;;;;;;1.10;100.00;100354.91;1792197;79;21143;-89
2021/04/06 01:38:40;;;;;;;17.15;14.30;;;;;;;1.14;100.00;100357.76;1796205;79;21116;-89
2021/04/06 01:41:10;;;;;;;19.85;16.35;;;;;;;1.20;100.00;100365.20;1796563;79;21120;-89
2021/04/06 01:43:50;;;;;;;18.02;15.30;;;;;;;1.24;100.00;100360.32;1796109;79;21619;-89
2021/04/06 01:46:16;;;;;;;15.30;13.40;;;;;;;1.29;100.00;100361.88;1791596;79;21175;-90
2021/04/06 01:48:43;;;;;;;20.68;15.30;;;;;;;1.31;100.00;100366.05;1791431;79;21650;-87
2021/04/06 01:51:16;;;;;;;17.45;14.33;;;;;;;1.34;100.00;100362.52;1796165;79;21183;-88
2021/04/06 01:53:44;;;;;;;18.15;14.68;;;;;;;1.35;100.00;100354.78;1811670;78;21447;-88
2021/04/06 01:56:15;;;;;;;17.12;15.03;;;;;;;1.36;100.00;100350.01;1816172;79;21547;-88
2021/04/06 01:58:48;;;;;;;19.23;14.28;;;;;;;1.38;100.00;100362.80;1816518;78;21552;-88
2021/04/06 02:01:21;;;;;;;19.67;14.45;;;;;;;1.40;100.00;100362.29;1818377;77;21112;-89
2021/04/06 02:04:00;;;;;;;20.27;15.03;;;;;;;1.43;100.00;100365.17;1776261;80;21599;-89
2021/04/06 02:06:33;;;;;;;19.52;15.23;;;;;;;1.43;100.00;100364.71;1791476;79;21458;-88
2021/04/06 02:09:07;;;;;;;20.68;14.75;;;;;;;1.43;100.00;100359.58;1793255;79;21793;-89
2021/04/06 02:11:40;;;;;;;17.77;14.83;;;;;;;1.39;100.00;100356.77;1790017;80;21187;-89
2021/04/06 02:14:20;;;;;;;20.12;15.63;;;;;;;1.37;100.00;100363.69;1793349;80;21198;-90
2021/04/06 02:16:59;;;;;;;21.45;15.18;;;;;;;1.35;100.00;100365.04;1793582;80;21614;-90
2021/04/06 02:19:37;;;;;;;19.73;15.35;;;;;;;1.35;100.00;100366.75;1789181;80;21213;-89
2021/04/06 02:22:15;;;;;;;20.27;15.23;;;;;;;1.31;100.00;100358.34;1803774;79;21539;-90
2021/04/06 02:24:47;;;;;;;22.87;16.15;;;;;;;1.28;100.00;100359.77;1806683;79;21128;-90
2021/04/06 02:27:29;;;;;;;19.35;15.58;;;;;;;1.26;100.00;100358.53;1807260;78;21669;-90
2021/04/06 02:30:03;;;;;;;21.15;15.48;;;;;;;1.26;100.00;100364.95;1789179;80;21610;-90
2021/04/06 02:32:34;;;;;;;20.05;15.80;;;;;;;1.25;100.00;100361.99;1805829;78;22302;-90
2021/04/06 02:35:11;;;;;;;20.65;15.75;;;;;;;1.25;100.00;100363.27;1809887;79;21192;-89
2021/04/06 02:37:45;;;;;;;17.87;14.40;;;;;;;1.25;100.00;100361.17;1810107;79;21461;-90
2021/04/06 02:40:18;;;;;;;19.02;15.15;;;;;;;1.27;100.00;100361.95;1748320;80;21163;-89
2021/04/06 02:42:49;;;;;;;19.50;14.73;;;;;;;1.31;100.00;100358.81;1778847;80;21112;-89
2021/04/06 02:45:28;;;;;;;22.47;15.90;;;;;;;1.34;100.00;100354.82;1764287;81;21079;-90
2021/04/06 02:48:14;;;;;;;21.23;16.17;;;;;;;1.35;100.00;100362.91;1778955;80;21132;-89
2021/04/06 02:50:43;;;;;;;22.85;15.50;;;;;;;1.34;100.00;100367.22;1778840;80;21183;-90
2021/04/06 02:53:16;;;;;;;23.40;15.88;;;;;;;1.35;100.00;100370.17;1763976;81;21174;-89
2021/04/06 02:55:44;;;;;;;23.90;17.95;;;;;;;1.34;100.00;100368.50;1772110;80;21124;-88
2021/04/06 02:58:15;;;;;;;23.12;17.48;;;;;;;1.34;100.00;100368.50;1763947;81;21182;-87
2021/04/06 03:00:44;;;;;;;21.17;16.27;;;;;;;1.34;100.00;100368.50;1772546;80;21501;-89
2021/04/06 03:03:26;;;;;;;23.95;15.38;;;;;;;1.37;100.00;100370.92;1765248;80;21140;-88
2021/04/06 03:06:05;;;;;;;20.05;15.28;;;;;;;1.37;100.00;100363.23;1762312;80;21144;-90
2021/04/06 03:08:36;;;;;;;25.37;18.12;;;;;;;1.38;100.00;100361.52;1765327;81;21268;-90
2021/04/06 03:11:07;;;;;;;22.60;17.10;;;;;;;1.38;100.00;100362.80;1764408;80;21378;-90
2021/04/06 03:13:42;;;;;;;22.48;16.97;;;;;;;1.38;100.00;100360.23;1815908;78;21139;-90
2021/04/06 03:16:11;;;;;;;25.15;17.92;;;;;;;1.38;100.00;100362.80;1818699;78;21119;-87
2021/04/06 03:18:41;;;;;;;20.92;15.95;;;;;;;1.37;100.00;100364.97;1772436;80;21242;-87
2021/04/06 03:21:12;;;;;;;21.65;16.10;;;;;;;1.35;100.00;100362.48;1821516;78;21717;-90
2021/04/06 03:23:42;;;;;;;21.27;16.30;;;;;;;1.35;100.00;100366.75;1816490;79;21472;-90
2021/04/06 03:26:10;;;;;;;22.37;16.55;;;;;;;1.35;100.00;100367.61;1816318;78;21131;-90
2021/04/06 03:28:40;;;;;;;35.75;18.30;;;;;;;1.37;100.00;100372.67;1787249;79;21087;-91
2021/04/06 03:31:13;;;;;;;33.48;17.82;;;;;;;1.51;100.00;100369.08;1786268;78;21142;-91
2021/04/06 03:33:47;;;;;;;34.15;17.23;;;;;;;1.75;100.00;100362.53;1784364;80;21167;-92
2021/04/06 03:36:26;;;;;;;28.75;16.73;;;;;;;1.92;100.00;100366.97;1784203;79;21575;-92
2021/04/06 03:38:59;;;;;;;26.30;16.52;;;;;;;2.04;100.00;100370.74;1783795;79;21147;-91
2021/04/06 03:41:30;;;;;;;36.83;18.60;;;;;;;2.17;100.00;100369.30;1783905;80;21156;-90
2021/04/06 03:44:08;;;;;;;33.53;18.67;;;;;;;2.30;100.00;100367.02;1788575;79;21123;-90
2021/04/06 03:46:40;;;;;;;23.70;17.50;;;;;;;2.53;100.00;100371.11;1778085;79;21119;-90
2021/04/06 03:49:22;;;;;;;27.40;16.97;;;;;;;2.69;100.00;100378.11;1798762;79;21191;-91
2021/04/06 03:51:57;;;;;;;24.47;16.65;;;;;;;2.77;100.00;100379.06;1787812;80;21131;-91
2021/04/06 03:54:47;;;;;;;23.77;16.27;;;;;;;2.90;100.00;100378.05;1787874;80;21198;-90
2021/04/06 03:57:53;;;;;;;21.73;15.87;;;;;;;2.96;100.00;100376.03;1787942;80;21115;-90
2021/04/06 04:00:22;;;;;;;22.20;15.10;;;;;;;3.05;100.00;100379.89;1795558;78;21210;-91
2021/04/06 04:02:51;;;;;;;26.40;17.48;;;;;;;3.16;100.00;100384.52;1820135;77;21421;-91
2021/04/06 04:05:19;;;;;;;25.17;16.02;;;;;;;3.22;100.00;100387.26;1797657;78;21154;-90
2021/04/06 04:07:49;;;;;;;24.32;16.32;;;;;;;3.30;100.00;100382.11;1787746;80;21186;-91
2021/04/06 04:10:17;;;;;;;21.00;16.30;;;;;;;3.36;100.00;100382.27;1787830;80;21162;-91
2021/04/06 04:12:45;;;;;;;28.45;17.20;;;;;;;3.44;100.00;100383.20;1830683;77;21497;-90
2021/04/06 04:15:14;;;;;;;21.55;16.10;;;;;;;3.48;100.00;100380.37;1796544;79;21162;-90
2021/04/06 04:17:53;;;;;;;21.65;16.32;;;;;;;3.56;100.00;100377.43;1795034;78;21144;-91
2021/04/06 04:20:23;;;;;;;21.93;16.12;;;;;;;3.67;100.00;100377.36;1805397;79;21131;-91
2021/04/06 04:22:51;;;;;;;21.75;16.23;;;;;;;3.77;100.00;100378.10;1805573;79;21479;-91
2021/04/06 04:25:21;;;;;;;23.35;15.53;;;;;;;3.85;100.00;100374.30;1819281;78;21151;-91
2021/04/06 04:27:51;;;;;;;21.77;17.25;;;;;;;3.99;100.00;100374.89;1822168;78;21363;-91
2021/04/06 04:33:09;;;;;;;22.73;19.15;;;;;;;4.10;100.00;100375.16;1808608;78;21536;-91
2021/04/06 04:35:38;;;;;;;25.60;20.82;;;;;;;4.10;100.00;100375.16;1798553;79;21056;-91
2021/04/06 04:38:08;;;;;;;34.23;23.18;;;;;;;4.21;100.00;100375.87;1813992;77;21576;-91
2021/04/06 04:40:41;;;;;;;29.55;23.73;;;;;;;4.33;100.00;100374.41;1812292;77;21536;-90
2021/04/06 04:43:11;;;;;;;32.00;23.70;;;;;;;4.40;100.00;100378.34;1807379;78;21130;-91
2021/04/06 04:45:40;;;;;;;31.70;23.80;;;;;;;4.49;100.00;100375.72;1812320;77;21188;-91
2021/04/06 04:48:08;;;;;;;30.72;24.67;;;;;;;4.55;100.00;100377.52;1818542;77;21073;-91
2021/04/06 04:51:04;;;;;;;31.90;25.35;;;;;;;4.63;100.00;100374.52;1795031;78;21231;-90
2021/04/06 04:53:32;;;;;;;28.57;22.58;;;;;;;4.70;100.00;100373.73;1841490;77;22420;-90
2021/04/06 04:56:03;;;;;;;32.93;25.00;;;;;;;4.78;100.00;100372.02;1841065;76;21636;-91
2021/04/06 04:58:35;;;;;;;34.20;24.23;;;;;;;4.89;100.00;100375.67;1831034;77;21156;-91
2021/04/06 05:01:03;;;;;;;29.02;23.10;;;;;;;4.97;100.00;100367.95;1831617;76;21137;-90
2021/04/06 05:03:33;;;;;;;30.85;23.50;;;;;;;5.02;100.00;100369.84;1826867;76;21192;-90
2021/04/06 05:06:04;;;;;;;37.15;25.35;;;;;;;5.03;100.00;100374.91;1830874;76;21433;-91
2021/04/06 05:09:00;;;;;;;32.93;24.47;;;;;;;5.02;100.00;100372.42;1833812;76;21152;-92
2021/04/06 05:11:29;;;;;;;29.77;23.57;;;;;;;5.05;100.00;100378.24;1834346;76;21133;-90
2021/04/06 05:14:02;;;;;;;35.23;26.55;;;;;;;5.15;100.00;100379.02;1814701;79;21097;-93
2021/04/06 05:16:31;;;;;;;30.15;25.52;;;;;;;5.23;100.00;100382.01;1814830;79;21049;-92
2021/04/06 05:18:59;;;;;;;37.35;26.90;;;;;;;5.25;100.00;100377.56;1814681;79;21356;-92
2021/04/06 05:21:31;;;;;;;29.98;25.70;;;;;;;5.26;100.00;100375.83;1815891;76;21121;-93
2021/04/06 05:23:59;;;;;;;30.45;25.15;;;;;;;5.26;100.00;100381.81;1834204;76;21165;-92
2021/04/06 05:26:28;;;;;;;32.40;24.95;;;;;;;5.33;100.00;100376.67;1814757;78;21149;-91
2021/04/06 05:29:28;;;;;;;31.60;26.45;;;;;;;5.38;100.00;100380.28;1814757;78;21129;-92
2021/04/06 05:32:25;;;;;;;34.90;26.60;;;;;;;5.44;100.00;100378.67;1814938;79;22120;-88
2021/04/06 05:34:55;;;;;;;37.08;27.62;;;;;;;5.56;100.00;100374.55;1814562;79;21168;-91
2021/04/06 05:37:30;;;;;;;32.58;27.15;;;;;;;5.72;100.00;100376.23;1814781;78;21580;-90
2021/04/06 05:40:00;;;;;;;40.67;29.82;;;;;;;5.79;100.00;100373.19;1814883;79;21057;-90
2021/04/06 05:42:29;;;;;;;35.78;28.52;;;;;;;5.89;100.00;100373.46;1817191;76;21164;-91
2021/04/06 05:44:58;;;;;;;33.50;27.65;;;;;;;5.97;100.00;100375.13;1837983;77;22150;-91
2021/04/06 05:47:41;;;;;;;35.43;30.80;;;;;;;6.08;100.00;100378.42;1836945;76;21192;-90
2021/04/06 05:50:09;;;;;;;31.65;27.80;;;;;;;6.17;100.00;100377.50;1831392;77;21537;-89
2021/04/06 05:52:38;;;;;;;36.48;29.35;;;;;;;6.26;100.00;100381.64;1827425;76;21220;-90
2021/04/06 05:55:08;;;;;;;31.62;25.80;;;;;;;6.34;100.00;100382.45;1828132;76;21554;-89
2021/04/06 05:57:36;;;;;;;29.85;25.72;;;;;;;6.45;100.00;100385.67;1821532;76;22372;-88
2021/04/06 06:00:07;;;;;;;35.70;28.73;;;;;;;6.56;100.00;100376.80;1824545;76;21573;-88
2021/04/06 06:02:37;;;;;;;31.05;27.50;;;;;;;6.65;100.00;100375.38;1814790;78;21529;-89
2021/04/06 06:05:08;;;;;;;28.23;24.92;;;;;;;6.71;100.00;100379.34;1803347;79;21550;-89
2021/04/06 06:07:38;;;;;;;32.40;25.97;;;;;;;6.76;100.00;100383.31;1806682;76;21117;-89
2021/04/06 06:10:32;;;;;;;27.77;24.87;;;;;;;6.76;100.00;100383.79;1822396;76;22125;-88
2021/04/06 06:13:24;;;;;;;24.82;22.20;;;;;;;6.73;100.00;100383.97;1825213;76;21515;-89
2021/04/06 06:16:21;;;;;;;31.87;23.12;;;;;;;6.69;100.00;100383.34;1813761;76;21148;-90
2021/04/06 06:19:06;;;;;;;23.35;20.45;;;;;;;6.70;100.00;100386.73;1801341;76;21482;-89
2021/04/06 06:21:49;;;;;;;25.17;19.20;;;;;;;6.70;100.00;100391.47;1847701;76;21148;-91
2021/04/06 06:24:35;;;;;;;20.77;18.57;;;;;;;6.74;100.00;100406.34;1837628;76;21165;-88
2021/04/06 06:30:37;;;;;;;22.05;17.90;;;;;;;6.90;100.00;100406.20;1801012;77;21167;-88
2021/04/06 06:33:17;;;;;;;22.85;18.50;;;;;;;6.98;100.00;100405.25;1812754;76;21168;-90
2021/04/06 06:35:52;;;;;;;19.90;18.00;;;;;;;7.09;100.00;100419.65;1810771;76;21165;-89
2021/04/06 06:38:30;;;;;;;22.30;19.62;;;;;;;7.24;100.00;100415.26;1786360;78;22167;-89
2021/04/06 06:41:16;;;;;;;29.12;25.43;;;;;;;7.43;100.00;100410.16;1819944;78;21141;-90
2021/04/06 06:43:51;;;;;;;23.42;21.02;;;;;;;7.64;100.00;100416.17;1791975;78;21101;-89
2021/04/06 06:46:30;;;;;;;25.12;22.55;;;;;;;7.79;100.00;100406.53;1803279;79;21546;-90
2021/04/06 06:49:06;;;;;;;22.37;19.52;;;;;;;7.90;100.00;100407.48;1794958;78;21177;-90
2021/04/06 06:51:37;;;;;;;24.55;20.32;;;;;;;8.05;100.00;100407.40;1836088;77;21541;-89
2021/04/06 06:54:07;;;;;;;20.30;18.25;;;;;;;8.18;100.00;100411.25;1844608;77;21109;-89
2021/04/06 06:56:42;;;;;;;23.27;19.85;;;;;;;8.29;100.00;100409.25;1844621;77;21133;-89
2021/04/06 06:59:10;;;;;;;21.90;18.30;;;;;;;8.36;100.00;100405.30;1844873;77;21169;-90
2021/04/06 07:01:39;;;;;;;16.17;14.33;;;;;;;8.44;100.00;100406.04;1844700;77;21125;-90
2021/04/06 07:04:13;;;;;;;15.60;12.73;;;;;;;8.48;100.00;100414.84;1847185;77;21177;-90
2021/04/06 07:06:44;;;;;;;17.15;12.13;;;;;;;8.52;100.00;100412.86;1845729;76;21180;-90
2021/04/06 07:09:30;;;;;;;14.20;10.88;;;;;;;8.49;100.00;100411.31;1845977;77;21073;-89
2021/04/06 07:12:05;;;;;;;12.85;11.05;;;;;;;8.52;100.00;100415.45;1824090;77;21512;-89
2021/04/06 07:14:36;;;;;;;17.07;11.10;;;;;;;8.58;100.00;100411.61;1815699;77;21225;-89
2021/04/06 07:17:06;;;;;;;13.10;11.38;;;;;;;8.63;100.00;100417.30;1829219;76;22223;-89
2021/04/06 07:19:44;;;;;;;20.40;14.45;;;;;;;8.66;100.00;100408.00;1826402;76;21132;-89
2021/04/06 07:22:14;;;;;;;14.53;12.58;;;;;;;8.72;100.00;100410.16;1855998;77;21136;-89
2021/04/06 07:24:43;;;;;;;13.83;11.33;;;;;;;8.80;100.00;100410.45;1825004;77;21172;-89
2021/04/06 07:27:13;;;;;;;14.07;11.43;;;;;;;8.77;100.00;100414.55;1841328;77;21136;-89
2021/04/06 07:29:43;;;;;;;13.60;11.50;;;;;;;8.66;100.00;100425.70;1822085;77;21295;-89
2021/04/06 07:32:13;;;;;;;13.22;11.60;;;;;;;8.59;100.00;100428.36;1829970;76;21132;-89
2021/04/06 07:34:44;;;;;;;13.10;11.70;;;;;;;8.60;100.00;100421.42;1851092;76;21585;-89
2021/04/06 07:37:13;;;;;;;12.98;11.30;;;;;;;8.66;100.00;100425.70;1846195;76;21108;-89
2021/04/06 07:39:41;;;;;;;15.38;12.73;;;;;;;8.75;100.00;100418.20;1833577;76;21127;-89
2021/04/06 07:42:11;;;;;;;15.68;12.50;;;;;;;8.81;100.00;100419.91;1844125;76;22109;-89
2021/04/06 07:44:40;;;;;;;15.40;11.60;;;;;;;8.88;100.00;100413.81;1817939;77;21185;-89
2021/04/06 07:47:08;;;;;;;13.93;12.25;;;;;;;8.94;100.00;100412.07;1823249;76;21699;-89
2021/04/06 07:49:38;;;;;;;13.65;11.63;;;;;;;9.01;100.00;100411.17;1828254;76;21168;-89
2021/04/06 07:52:17;;;;;;;13.38;11.05;;;;;;;9.11;100.00;100414.74;1832177;76;21541;-89
2021/04/06 07:54:54;;;;;;;14.33;11.53;;;;;;;9.31;100.00;100413.30;1851914;76;22428;-88
2021/04/06 07:57:42;;;;;;;12.45;10.55;;;;;;;9.37;100.00;100417.22;1813209;78;21113;-88
2021/04/06 08:00:12;;;;;;;15.35;11.55;;;;;;;9.39;100.00;100423.59;1836304;76;21361;-89
2021/04/06 08:02:44;;;;;;;14.07;11.18;;;;;;;9.42;100.00;100420.78;1828236;77;21204;-89
2021/04/06 08:05:19;;;;;;;11.38;9.85;;;;;;;9.52;100.00;100417.03;1813473;78;21169;-89
2021/04/06 08:07:47;;;;;;;11.85;9.95;;;;;;;9.66;100.00;100410.33;1818350;76;21184;-89
2021/04/06 08:10:27;;;;;;;15.08;10.82;;;;;;;9.85;100.00;100407.66;1820387;78;21274;-89
2021/04/06 08:12:55;;;;;;;11.57;9.73;;;;;;;10.03;100.00;100401.07;1815039;78;22269;-91
2021/04/06 08:15:29;;;;;;;11.78;9.53;;;;;;;10.15;100.00;100403.66;1814509;78;21185;-90
2021/04/06 08:18:01;;;;;;;10.93;9.83;;;;;;;10.10;100.00;100401.41;1808540;77;21613;-91
2021/04/06 08:20:34;;;;;;;13.70;10.10;;;;;;;10.00;100.00;100399.98;1807063;78;21199;-91
2021/04/06 08:23:17;;;;;;;12.33;9.35;;;;;;;9.95;100.00;100404.73;1806868;79;21140;-91
2021/04/06 08:25:50;;;;;;;11.50;9.55;;;;;;;9.88;100.00;100410.04;1802937;78;21137;-90
2021/04/06 08:28:31;;;;;;;11.48;9.83;;;;;;;9.88;100.00;100412.64;1807088;78;21145;-91
2021/04/06 08:31:22;;;;;;;10.72;9.63;;;;;;;9.92;100.00;100411.45;1807022;78;21149;-91
2021/04/06 08:33:51;;;;;;;11.25;9.75;;;;;;;9.93;100.00;100410.51;1818445;78;21160;-90
2021/04/06 08:36:28;;;;;;;10.98;9.63;;;;;;;9.93;100.00;100414.41;1801653;78;21161;-90
2021/04/06 08:38:58;;;;;;;10.98;9.25;;;;;;;9.96;100.00;100411.59;1838544;77;21168;-90
2021/04/06 08:41:31;;;;;;;10.20;9.10;;;;;;;10.00;100.00;100406.49;1839045;77;21220;-91
2021/04/06 08:44:04;;;;;;;13.25;9.15;;;;;;;10.06;100.00;100406.50;1757902;80;21195;-90
2021/04/06 08:46:43;;;;;;;10.60;9.38;;;;;;;10.10;100.00;100407.91;1753704;80;21571;-90
2021/04/06 08:49:41;;;;;;;10.72;9.18;;;;;;;10.17;100.00;100397.42;1772638;79;21161;-90
2021/04/06 08:52:16;;;;;;;11.33;9.20;;;;;;;10.26;100.00;100396.69;1766883;79;21206;-90
2021/04/06 08:54:47;;;;;;;10.95;9.00;;;;;;;10.44;100.00;100398.03;1732338;81;21173;-90
2021/04/06 08:57:16;;;;;;;11.10;9.38;;;;;;;10.59;100.00;100400.73;1716108;82;21159;-89
2021/04/06 08:59:44;;;;;;;10.40;9.40;;;;;;;10.71;100.00;100388.02;1735526;81;21221;-90
2021/04/06 09:02:18;;;;;;;12.78;9.15;;;;;;;10.81;100.00;100397.26;1763277;78;21167;-90
2021/04/06 09:04:53;;;;;;;10.58;9.48;;;;;;;10.92;100.00;100393.80;1762502;78;21200;-90
2021/04/06 09:07:29;;;;;;;10.72;8.83;;;;;;;11.09;100.00;100382.00;1779909;78;22045;-91
2021/04/06 09:10:12;;;;;;;10.35;8.60;;;;;;;11.22;100.00;100391.44;1788722;78;21741;-91
2021/04/06 09:12:53;;;;;;;10.25;8.28;;;;;;;11.27;100.00;100386.67;1776727;80;21560;-91
2021/04/06 09:15:23;;;;;;;9.03;8.10;;;;;;;11.28;100.00;100387.02;1759257;81;21178;-90
2021/04/06 09:18:04;;;;;;;10.05;8.20;;;;;;;11.27;100.00;100382.27;1759692;80;21370;-90
2021/04/06 09:20:35;;;;;;;8.70;7.80;;;;;;;11.29;100.00;100379.56;1776682;78;21138;-89
2021/04/06 09:23:10;;;;;;;9.43;8.43;;;;;;;11.33;100.00;100382.25;1779520;78;21164;-90
2021/04/06 09:25:39;;;;;;;9.53;8.48;;;;;;;11.33;100.00;100373.13;1758441;80;21492;-90
2021/04/06 09:28:08;;;;;;;12.73;8.70;;;;;;;11.27;100.00;100371.84;1760200;81;21624;-90
2021/04/06 09:30:45;;;;;;;10.48;8.30;;;;;;;11.23;100.00;100371.77;1770339;80;21608;-91
2021/04/06 09:33:17;;;;;;;9.98;8.58;;;;;;;11.20;100.00;100375.45;1773003;80;21149;-88
2021/04/06 09:35:52;;;;;;;9.38;8.35;;;;;;;11.19;100.00;100376.86;1778150;79;21199;-87
2021/04/06 09:38:24;;;;;;;9.08;7.70;;;;;;;11.23;100.00;100374.83;1747436;80;21169;-89
2021/04/06 09:40:54;;;;;;;8.68;7.65;;;;;;;11.42;100.00;100377.59;1764200;79;27088;-89
2021/04/06 09:43:33;;;;;;;;;;;;;;;;;;;;;
2021/04/06 09:45:55;;;;;;;8.50;7.50;;;;;;;11.72;100.00;100364.25;1785073;79;21170;-87
2021/04/06 09:48:23;;;;;;;7.60;6.78;;;;;;;11.71;100.00;100374.81;1757347;80;21163;-88
2021/04/06 09:51:00;;;;;;;8.90;7.85;;;;;;;11.63;95.60;100371.53;1759231;80;21088;-88
2021/04/06 09:53:29;;;;;;;8.58;7.30;;;;;;;11.54;96.68;100369.22;1782816;78;21229;-87
2021/04/06 09:55:59;;;;;;;9.13;7.00;;;;;;;11.62;95.92;100369.41;1769307;79;21235;-88
2021/04/06 09:58:28;;;;;;;9.08;7.28;;;;;;;11.86;95.33;100364.88;1732504;81;21186;-88
2021/04/06 10:00:56;;;;;;;7.72;6.92;;;;;;;12.05;84.69;100361.08;1767833;80;21193;-87
2021/04/06 10:03:24;;;;;;;8.58;7.20;;;;;;;12.09;81.96;100361.17;1768372;80;21163;-87
2021/04/06 10:06:06;;;;;;;7.55;6.78;;;;;;;12.00;72.39;100361.95;1773248;80;21460;-88
2021/04/06 10:08:34;;;;;;;8.05;6.50;;;;;;;11.83;74.13;100356.81;1731133;81;22301;-88
2021/04/06 10:11:10;;;;;;;7.37;6.58;;;;;;;11.67;75.18;100358.59;1741937;80;21756;-87
2021/04/06 10:13:39;;;;;;;8.90;6.25;;;;;;;11.57;72.85;100361.62;1739085;80;21243;-88
2021/04/06 10:16:13;;;;;;;10.18;6.80;;;;;;;11.51;69.80;100351.22;1772834;79;21126;-88
2021/04/06 10:18:48;;;;;;;7.42;6.33;;;;;;;11.54;73.19;100358.80;1778902;80;21187;-88
2021/04/06 10:21:26;;;;;;;7.12;5.05;;;;;;;11.70;72.31;100355.72;1736247;81;21208;-88
2021/04/06 10:24:06;;;;;;;7.65;5.97;;;;;;;11.86;66.88;100359.17;1777548;80;21240;-87
2021/04/06 10:26:34;;;;;;;8.05;5.37;;;;;;;12.03;65.80;100356.95;1787795;78;21056;-88
2021/04/06 10:29:09;;;;;;;6.22;4.70;;;;;;;12.16;60.96;100354.92;1765057;79;21076;-90
2021/04/06 10:31:48;;;;;;;5.08;4.47;;;;;;;12.34;58.21;100343.86;1745814;81;21166;-90
2021/04/06 10:34:17;;;;;;;6.12;5.08;;;;;;;12.51;55.71;100341.91;1764936;81;21357;-89
2021/04/06 10:37:00;;;;;;;5.95;5.35;;;;;;;12.63;57.26;100334.28;1765024;80;21142;-89
2021/04/06 10:39:42;;;;;;;6.90;5.10;;;;;;;12.73;56.66;100333.48;1764961;80;21147;-89
2021/04/06 10:42:14;;;;;;;7.85;5.05;;;;;;;12.78;56.45;100332.11;1745400;81;21167;-91
2021/04/06 10:44:45;;;;;;;6.53;5.17;;;;;;;12.90;54.93;100330.66;1770819;80;21147;-89
2021/04/06 10:47:24;;;;;;;5.22;4.72;;;;;;;13.00;53.33;100323.64;1765059;80;22126;-89
2021/04/06 10:49:58;;;;;;;5.95;4.90;;;;;;;13.06;51.19;100325.70;1764906;80;21159;-89
2021/04/06 10:52:33;;;;;;;5.12;4.67;;;;;;;13.05;52.17;100327.16;1765147;81;21596;-90
2021/04/06 10:55:05;;;;;;;4.95;4.42;;;;;;;13.08;52.43;100318.55;1779108;80;21198;-90
2021/04/06 10:57:38;;;;;;;5.87;5.20;;;;;;;13.18;52.19;100317.23;1787612;80;21154;-91
2021/04/06 11:00:23;;;;;;;4.90;4.40;;;;;;;13.35;54.87;100320.09;1763690;80;21356;-90
2021/04/06 11:03:15;;;;;;;5.08;4.33;;;;;;;13.43;50.01;100305.05;1786371;79;21127;-89
2021/04/06 11:05:45;;;;;;;5.37;4.53;;;;;;;13.33;48.85;100314.20;1764249;81;21646;-89
2021/04/06 11:08:24;;;;;;;;;;;;;;;13.10;50.24;100317.94;1800192;79;21173;-89
2021/04/06 11:10:58;;;;;;;4.83;4.28;;;;;;;12.91;51.04;100310.09;1797623;79;20238;-89
2021/04/06 11:13:26;;;;;;;6.03;4.53;;;;;;;12.75;53.91;100310.17;1774155;79;21382;-90
2021/04/06 11:15:55;;;;;;;7.40;4.83;;;;;;;12.65;53.00;100301.52;1757566;79;21850;-90
2021/04/06 11:18:23;;;;;;;5.10;4.60;;;;;;;12.56;53.35;100299.72;1797995;78;21134;-89
2021/04/06 11:20:52;;;;;;;6.25;5.22;;;;;;;12.49;53.95;100296.81;1797918;79;21198;-89
2021/04/06 11:23:20;;;;;;;6.33;5.12;;;;;;;12.49;52.74;100299.42;1797872;78;21126;-89
2021/04/06 11:25:49;;;;;;;5.50;4.37;;;;;;;12.52;52.47;100295.72;1797609;78;21401;-90
2021/04/06 11:28:18;;;;;;;5.40;4.90;;;;;;;12.51;53.74;100290.98;1797853;79;21144;-89
2021/04/06 11:30:46;;;;;;;5.78;4.40;;;;;;;12.58;53.62;100282.95;1779697;78;21178;-90
2021/04/06 11:33:14;;;;;;;5.75;4.47;;;;;;;12.74;53.86;100278.47;1766102;79;21189;-90
2021/04/06 11:35:42;;;;;;;5.35;4.60;;;;;;;12.92;52.15;100278.63;1751437;81;21200;-90
2021/04/06 11:38:13;;;;;;;5.28;4.50;;;;;;;12.96;50.71;100280.47;1764873;80;21349;-90
2021/04/06 11:40:41;;;;;;;5.80;5.17;;;;;;;12.89;50.54;100272.35;1795685;79;21124;-90
2021/04/06 11:43:11;;;;;;;8.63;6.10;;;;;;;12.81;52.80;100275.33;1789122;78;21558;-90
2021/04/06 11:45:39;;;;;;;8.85;6.53;;;;;;;12.69;54.93;100271.53;1797881;78;21110;-89
2021/04/06 11:48:07;;;;;;;9.63;6.50;;;;;;;12.59;54.29;100275.45;1797999;78;21084;-90
2021/04/06 11:50:35;;;;;;;12.63;7.15;;;;;;;12.49;56.84;100278.53;1797853;78;21210;-90